Time;durP1;ratioP1;P1;durP2;ratioP2;P2;SDS_P1;SDS_P2;PMS_P1;PMS_P2;Temp;Humidity;BMP_temperature;BMP_pressure;BME280_temperature;BME280_humidity;BME280_pressure;Samples;Min_cycle;Max_cycle;Signal;HPM_P1;HPM_P2
2021/12/10 00:00:27;;;;;;;26.33;15.87;;;;;;;-0.35;100.00;95215.00;10609331;28;20557;-67
2021/12/10 00:05:33;;;;;;;32.60;16.23;;;;;;;-0.40;100.00;95210.25;10608957;28;20231;-66
2021/12/10 00:10:38;;;;;;;27.93;15.40;;;;;;;-0.38;100.00;95202.41;10608496;28;20197;-67
2021/12/10 00:15:40;;;;;;;23.13;13.63;;;;;;;-0.32;100.00;95208.78;10608379;28;20206;-68
2021/12/10 00:20:42;;;;;;;27.03;15.23;;;;;;;-0.42;100.00;95201.81;10608660;28;20267;-65
2021/12/10 00:25:48;;;;;;;32.87;16.07;;;;;;;-0.42;100.00;95196.66;10607874;28;20166;-65
2021/12/10 00:31:05;;;;;;;28.23;14.20;;;;;;;-0.42;100.00;95196.66;10608528;28;20296;-65
2021/12/10 00:36:07;;;;;;;23.00;13.03;;;;;;;-0.44;100.00;95188.28;10608224;28;20388;-65
2021/12/10 00:41:08;;;;;;;28.50;15.47;;;;;;;-0.45;100.00;95190.97;10611718;28;20227;-66
2021/12/10 00:46:08;;;;;;;27.17;15.80;;;;;;;-0.51;100.00;95184.56;10616182;28;20237;-67
2021/12/10 00:51:11;;;;;;;27.83;13.43;;;;;;;-0.50;100.00;95180.25;10616710;28;20197;-65
2021/12/10 00:56:11;;;;;;;27.67;14.13;;;;;;;-0.52;100.00;95172.66;10616005;28;20197;-66
2021/12/10 01:01:16;;;;;;;26.73;12.47;;;;;;;-0.45;100.00;95165.25;10616249;28;20170;-68
2021/12/10 01:06:17;;;;;;;22.07;10.80;;;;;;;-0.40;100.00;95161.38;10615739;28;20174;-68
2021/12/10 01:11:32;;;;;;;21.80;11.77;;;;;;;-0.41;100.00;95141.72;10615648;28;20581;-68
2021/12/10 01:27:02;;;;;;;16.97;8.73;;;;;;;-0.40;100.00;95127.09;10614669;28;20236;-67
2021/12/10 01:32:06;;;;;;;20.80;8.53;;;;;;;-0.39;100.00;95110.72;10615058;28;20206;-68
2021/12/10 01:37:06;;;;;;;19.73;9.80;;;;;;;-0.34;100.00;95100.84;10614573;28;20241;-67
2021/12/10 01:42:43;;;;;;;21.23;10.80;;;;;;;-0.50;100.00;95098.75;10614796;28;20162;-66
2021/12/10 01:47:37;;;;;;;15.67;8.87;;;;;;;-0.47;100.00;95093.34;10613507;28;20197;-67
2021/12/10 01:52:37;;;;;;;15.53;8.47;;;;;;;-0.43;100.00;95084.44;10613306;28;20205;-67
2021/12/10 01:57:39;;;;;;;16.90;8.43;;;;;;;-0.45;100.00;95076.03;10614321;28;20336;-67
2021/12/10 02:02:42;;;;;;;14.67;7.10;;;;;;;-0.39;100.00;95069.56;10613503;28;20207;-65
2021/12/10 02:07:45;;;;;;;14.30;5.47;;;;;;;-0.38;100.00;95060.91;10613497;28;20182;-66
2021/12/10 02:12:46;;;;;;;13.97;5.30;;;;;;;-0.41;100.00;95051.69;10613473;28;20193;-63
2021/12/10 02:17:49;;;;;;;12.47;5.33;;;;;;;-0.45;100.00;95034.88;10613251;28;20210;-64
2021/12/10 02:22:50;;;;;;;8.60;5.20;;;;;;;-0.51;100.00;95032.81;10613010;28;20177;-64
2021/12/10 02:27:51;;;;;;;8.17;4.23;;;;;;;-0.50;100.00;95024.16;10612412;28;20193;-65
2021/12/10 02:32:52;;;;;;;7.67;4.93;;;;;;;-0.44;100.00;95025.41;10612406;28;20161;-63
2021/12/10 02:37:53;;;;;;;8.80;5.60;;;;;;;-0.56;100.00;95010.06;10612456;28;20530;-66
2021/12/10 02:42:54;;;;;;;11.73;5.83;;;;;;;-0.51;100.00;94998.56;10612442;28;20340;-63
2021/12/10 02:47:54;;;;;;;9.20;5.23;;;;;;;-0.55;100.00;94987.75;10601558;28;20173;-65
2021/12/10 02:52:55;;;;;;;9.40;5.50;;;;;;;-0.64;100.00;94985.97;10612698;28;20256;-64
2021/12/10 02:57:57;;;;;;;10.90;5.70;;;;;;;-0.49;100.00;94984.66;10613457;28;20259;-65
2021/12/10 03:02:58;;;;;;;8.33;5.03;;;;;;;-0.48;100.00;94999.13;10611075;28;20170;-66
2021/12/10 03:07:58;;;;;;;11.77;5.23;;;;;;;-0.66;100.00;94987.81;10611397;28;20237;-66
2021/12/10 03:12:59;;;;;;;8.43;5.17;;;;;;;-0.60;100.00;94984.72;10610983;28;20287;-66
2021/12/10 03:18:01;;;;;;;7.40;5.10;;;;;;;-0.62;100.00;94976.34;10610427;28;20272;-65
2021/12/10 03:23:03;;;;;;;7.97;4.37;;;;;;;-0.64;100.00;94971.34;10610598;28;20177;-66
2021/12/10 03:28:04;;;;;;;9.47;5.57;;;;;;;-0.75;100.00;94969.69;10610075;28;20188;-63
2021/12/10 03:33:05;;;;;;;12.03;5.23;;;;;;;-0.76;100.00;94969.81;10609811;28;20182;-65
2021/12/10 03:38:05;;;;;;;7.50;5.07;;;;;;;-0.72;100.00;94971.16;10610327;28;20189;-66
2021/12/10 03:43:06;;;;;;;9.97;4.90;;;;;;;-0.79;100.00;94977.78;10609650;28;20244;-65
2021/12/10 03:48:10;;;;;;;10.10;5.33;;;;;;;-0.86;100.00;94972.31;10609189;28;20301;-64
2021/12/10 03:53:11;;;;;;;9.17;5.40;;;;;;;-0.79;100.00;94970.88;10609436;28;20201;-65
2021/12/10 03:58:12;;;;;;;8.80;5.10;;;;;;;-0.85;100.00;94962.88;10609562;28;20172;-67
2021/12/10 04:03:14;;;;;;;11.17;5.33;;;;;;;-0.93;100.00;94959.19;10596634;28;20385;-66
2021/12/10 04:08:15;;;;;;;14.60;7.30;;;;;;;-0.99;100.00;94954.56;10562690;28;20186;-65
2021/12/10 04:13:15;;;;;;;12.33;7.33;;;;;;;-1.16;100.00;94955.97;10559912;28;20344;-64
2021/12/10 04:18:16;;;;;;;21.43;11.47;;;;;;;-1.22;100.00;94956.50;10560705;28;20271;-63
2021/12/10 04:23:20;;;;;;;10.77;6.07;;;;;;;-1.19;100.00;94963.94;10560732;28;20380;-64
2021/12/10 04:28:21;;;;;;;10.43;6.47;;;;;;;-1.19;100.00;94956.25;10560027;28;20202;-64
2021/12/10 04:33:25;;;;;;;8.77;5.10;;;;;;;-1.13;100.00;94953.16;10559940;28;20216;-61
2021/12/10 04:38:29;;;;;;;11.93;6.30;;;;;;;-1.26;100.00;94950.81;10561003;28;20166;-65
2021/12/10 04:43:30;;;;;;;9.37;6.43;;;;;;;-1.22;100.00;94955.69;10559255;28;20167;-64
2021/12/10 04:48:47;;;;;;;12.10;6.03;;;;;;;-1.23;100.00;94957.41;10560791;28;20359;-62
2021/12/10 04:53:48;;;;;;;11.83;6.03;;;;;;;-1.23;100.00;94960.00;10560282;28;20190;-64
2021/12/10 04:58:48;;;;;;;24.23;12.60;;;;;;;-1.24;100.00;94950.69;10559900;28;20167;-65
2021/12/10 05:03:49;;;;;;;21.30;11.00;;;;;;;-1.16;100.00;94945.69;10563732;28;20233;-63
2021/12/10 05:08:49;;;;;;;12.77;7.67;;;;;;;-1.30;100.00;94930.63;10565688;28;20209;-63
2021/12/10 05:13:50;;;;;;;14.23;7.37;;;;;;;-1.34;100.00;94922.34;10565173;28;20175;-62
2021/12/10 05:18:56;;;;;;;12.50;7.37;;;;;;;-1.24;100.00;94922.41;10565451;28;20211;-65
2021/12/10 05:23:58;;;;;;;8.60;6.03;;;;;;;-1.29;100.00;94912.53;10565408;28;20237;-63
2021/12/10 05:28:58;;;;;;;8.60;5.20;;;;;;;-1.19;100.00;94906.63;10570348;28;20199;-66
2021/12/10 05:33:58;;;;;;;10.77;5.27;;;;;;;-1.14;100.00;94907.84;10573047;28;20174;-64
2021/12/10 05:38:59;;;;;;;10.40;5.57;;;;;;;-1.07;100.00;94895.31;10571828;28;20163;-66
2021/12/10 05:44:00;;;;;;;13.27;6.40;;;;;;;-1.22;100.00;94896.59;10571991;28;20166;-64
2021/12/10 05:49:00;;;;;;;11.37;5.27;;;;;;;-1.13;100.00;94901.75;10571725;28;20194;-63
2021/12/10 05:54:01;;;;;;;12.30;6.07;;;;;;;-1.08;100.00;94894.47;10572070;28;20181;-65
2021/12/10 05:59:02;;;;;;;9.10;5.97;;;;;;;-1.10;100.00;94893.78;10571171;28;20159;-64
2021/12/10 06:04:03;;;;;;;10.63;5.63;;;;;;;-1.10;100.00;94898.94;10572231;28;20177;-66
2021/12/10 06:09:06;;;;;;;10.70;4.90;;;;;;;-1.02;100.00;94889.78;10571084;28;20194;-66
2021/12/10 06:14:07;;;;;;;11.30;7.60;;;;;;;-1.00;100.00;94888.69;10570838;28;20186;-64
2021/12/10 06:19:08;;;;;;;11.57;6.63;;;;;;;-0.97;100.00;94885.84;10570940;28;20324;-67
2021/12/10 06:24:08;;;;;;;9.67;5.83;;;;;;;-0.94;100.00;94875.31;10570886;28;20166;-65
2021/12/10 06:29:09;;;;;;;10.50;5.70;;;;;;;-0.92;100.00;94873.44;10609317;28;20369;-64
2021/12/10 06:34:10;;;;;;;9.23;5.73;;;;;;;-1.05;100.00;94862.56;10612838;28;20448;-63
2021/12/10 06:39:10;;;;;;;9.80;6.23;;;;;;;-1.06;100.00;94865.28;10612267;28;20439;-63
2021/12/10 06:44:11;;;;;;;14.47;6.57;;;;;;;-1.09;100.00;94866.34;10611681;28;20165;-65
2021/12/10 06:49:12;;;;;;;10.27;6.20;;;;;;;-1.06;100.00;94863.50;10611845;28;20234;-66
2021/12/10 06:54:12;;;;;;;11.53;6.13;;;;;;;-1.00;100.00;94849.31;10598844;27;20264;-63
2021/12/10 06:59:13;;;;;;;12.37;6.93;;;;;;;-1.12;100.00;94848.59;10609646;28;20177;-63
2021/12/10 07:04:14;;;;;;;11.20;4.83;;;;;;;-1.06;100.00;94845.50;10609584;28;20334;-65
2021/12/10 07:09:18;;;;;;;11.30;5.07;;;;;;;-1.02;100.00;94848.66;10607856;28;20209;-63
2021/12/10 07:14:19;;;;;;;9.73;5.93;;;;;;;-1.04;100.00;94846.22;10608805;28;20237;-64
2021/12/10 07:19:20;;;;;;;12.33;5.67;;;;;;;-1.01;100.00;94845.94;10608052;28;20387;-66
2021/12/10 07:24:20;;;;;;;7.87;3.83;;;;;;;-0.93;100.00;94840.16;10608136;28;20180;-66
2021/12/10 07:29:21;;;;;;;6.70;4.90;;;;;;;-0.89;100.00;94838.91;10606962;28;20204;-69
2021/12/10 07:34:21;;;;;;;10.40;5.40;;;;;;;-0.83;100.00;94819.59;10608468;28;20591;-66
2021/12/10 07:39:21;;;;;;;9.17;5.73;;;;;;;-0.76;100.00;94820.69;10594790;28;20227;-65
2021/12/10 07:44:22;;;;;;;8.70;4.93;;;;;;;-0.77;100.00;94806.19;10577650;28;20186;-69
2021/12/10 07:49:28;;;;;;;15.73;5.27;;;;;;;-0.77;100.00;94807.00;10606375;28;20223;-65
2021/12/10 07:54:29;;;;;;;10.33;5.20;;;;;;;-0.79;100.00;94806.34;10607073;28;20170;-67
2021/12/10 07:59:29;;;;;;;9.03;5.50;;;;;;;-0.80;100.00;94802.13;10606787;28;20186;-65
2021/12/10 08:04:30;;;;;;;8.13;4.73;;;;;;;-0.78;100.00;94802.00;10607602;28;20165;-68
2021/12/10 08:09:30;;;;;;;6.73;4.70;;;;;;;-0.66;100.00;94792.41;10606674;28;20190;-65
2021/12/10 08:14:30;;;;;;;9.60;4.90;;;;;;;-0.59;100.00;94793.50;10606401;28;20217;-65
2021/12/10 08:19:31;;;;;;;8.13;4.70;;;;;;;-0.57;100.00;94787.28;10606587;28;20230;-65
2021/12/10 08:24:31;;;;;;;19.53;10.27;;;;;;;-0.52;100.00;94786.03;10606194;28;20164;-67
2021/12/10 08:29:31;;;;;;;9.47;6.00;;;;;;;-0.48;100.00;94777.91;10605658;28;20259;-66
2021/12/10 08:34:32;;;;;;;11.23;8.67;;;;;;;-0.44;100.00;94781.84;10606743;28;20178;-64
2021/12/10 08:39:32;;;;;;;9.93;5.80;;;;;;;-0.55;100.00;94780.22;10605204;28;20162;-66
2021/12/10 08:44:33;;;;;;;8.80;5.73;;;;;;;-0.38;100.00;94776.16;10606080;28;20162;-66
2021/12/10 08:49:33;;;;;;;6.60;4.83;;;;;;;-0.30;100.00;94775.47;10605196;28;20345;-65
2021/12/10 08:54:35;;;;;;;9.37;5.93;;;;;;;-0.21;100.00;94774.63;10605595;28;20219;-68
2021/12/10 08:59:38;;;;;;;12.30;6.40;;;;;;;-0.20;100.00;94767.72;10605399;28;20181;-67
2021/12/10 09:04:40;;;;;;;12.83;8.10;;;;;;;0.06;100.00;94762.81;10613311;28;20174;-67
2021/12/10 09:09:42;;;;;;;17.00;10.20;;;;;;;0.14;100.00;94768.06;10613342;28;20261;-66
2021/12/10 09:14:48;;;;;;;18.87;10.73;;;;;;;0.00;100.00;94755.66;10613079;28;20221;-66
2021/12/10 09:19:50;;;;;;;13.80;8.77;;;;;;;0.15;100.00;94753.41;10613612;28;20162;-68
2021/12/10 09:24:54;;;;;;;12.00;7.10;;;;;;;0.12;100.00;94758.84;10611875;28;20238;-68
2021/12/10 09:29:55;;;;;;;13.23;7.43;;;;;;;0.43;100.00;94745.69;10612402;28;20198;-66
2021/12/10 09:34:57;;;;;;;13.50;6.73;;;;;;;0.67;100.00;94743.44;10612043;28;20168;-70
2021/12/10 09:39:57;;;;;;;26.37;14.07;;;;;;;0.44;100.00;94734.44;10612525;28;20187;-69
2021/12/10 09:44:58;;;;;;;19.63;10.67;;;;;;;0.56;100.00;94730.72;10612115;28;20173;-68
2021/12/10 09:49:59;;;;;;;27.27;13.07;;;;;;;0.67;100.00;94711.69;10611547;28;20246;-66
2021/12/10 09:54:59;;;;;;;19.07;9.73;;;;;;;0.95;100.00;94709.03;10611009;28;20275;-68
2021/12/10 10:00:08;;;;;;;15.10;8.57;;;;;;;1.15;100.00;94714.88;10611666;28;20161;-68
2021/12/10 10:05:14;;;;;;;14.90;9.10;;;;;;;1.15;100.00;94710.53;10610954;28;20165;-67
2021/12/10 10:10:15;;;;;;;14.43;8.57;;;;;;;1.50;100.00;94710.63;10612032;28;20373;-67
2021/12/10 10:15:19;;;;;;;18.33;9.73;;;;;;;1.63;100.00;94705.91;10610466;28;20266;-65
2021/12/10 10:20:21;;;;;;;13.80;8.23;;;;;;;1.72;100.00;94702.41;10610429;28;20180;-66
2021/12/10 10:25:23;;;;;;;14.67;8.20;;;;;;;1.66;100.00;94699.63;10610178;28;20197;-65
2021/12/10 10:30:30;;;;;;;12.03;7.13;;;;;;;1.64;100.00;94694.63;10609972;28;20221;-67
2021/12/10 10:35:35;;;;;;;8.20;5.17;;;;;;;1.84;100.00;94681.50;10609575;28;20364;-66
2021/12/10 10:40:39;;;;;;;51.03;19.57;;;;;;;1.75;100.00;94685.81;10610717;28;20170;-68
2021/12/10 10:45:42;;;;;;;54.17;21.83;;;;;;;1.81;100.00;94674.88;10609181;28;20177;-66
2021/12/10 10:50:58;;;;;;;11.87;6.77;;;;;;;1.54;100.00;94662.94;10608125;28;20188;-66
2021/12/10 10:56:12;;;;;;;8.10;5.63;;;;;;;1.33;100.00;94665.84;10610028;28;20177;-65
2021/12/10 11:01:23;;;;;;;5.83;3.37;;;;;;;1.32;100.00;94657.31;10607462;28;20251;-66
2021/12/10 11:06:36;;;;;;;6.73;4.87;;;;;;;1.46;100.00;94674.00;10608916;28;20192;-65
2021/12/10 11:11:42;;;;;;;6.37;4.23;;;;;;;1.29;100.00;94655.03;10608479;28;20204;-66
2021/12/10 11:16:45;;;;;;;5.13;3.57;;;;;;;1.66;100.00;94660.91;10608936;28;20221;-66
2021/12/10 11:21:58;;;;;;;7.00;5.07;;;;;;;1.58;100.00;94652.16;10608304;28;20170;-66
2021/12/10 11:27:03;;;;;;;6.40;3.90;;;;;;;1.48;100.00;94648.06;10606859;28;20259;-64
2021/12/10 11:32:08;;;;;;;9.70;5.13;;;;;;;1.81;100.00;94633.56;10607380;28;20275;-65
2021/12/10 11:37:09;;;;;;;9.07;5.67;;;;;;;1.60;100.00;94637.31;10607856;28;20225;-65
2021/12/10 11:42:43;;;;;;;9.77;4.77;;;;;;;1.75;100.00;94629.03;10608349;28;20300;-65
2021/12/10 11:47:45;;;;;;;9.00;6.07;;;;;;;2.48;100.00;94620.72;10607632;28;20197;-65
2021/12/10 11:52:59;;;;;;;6.23;4.20;;;;;;;2.14;100.00;94619.03;10607011;28;20193;-62
2021/12/10 11:58:00;;;;;;;7.97;4.90;;;;;;;1.99;100.00;94640.41;10607091;28;20169;-62
2021/12/10 12:03:04;;;;;;;8.17;5.17;;;;;;;1.37;100.00;94652.50;10606291;28;20396;-64
2021/12/10 12:08:07;;;;;;;5.57;2.83;;;;;;;0.65;100.00;94642.25;10607214;28;20243;-64
2021/12/10 12:18:24;;;;;;;8.83;5.00;;;;;;;0.46;100.00;94643.22;10606318;28;20253;-64
2021/12/10 12:28:49;;;;;;;10.87;6.57;;;;;;;0.87;100.00;94656.47;10605534;28;20201;-66
2021/12/10 12:33:57;;;;;;;10.47;5.93;;;;;;;0.73;100.00;94653.59;10605337;28;20315;-64
2021/12/10 12:38:58;;;;;;;11.03;6.73;;;;;;;0.49;100.00;94637.75;10615579;28;20168;-64
2021/12/10 12:44:16;;;;;;;11.77;6.30;;;;;;;0.59;100.00;94637.69;10613816;28;20158;-65
2021/12/10 12:49:17;;;;;;;9.63;6.60;;;;;;;0.37;100.00;94627.81;10613872;28;20214;-63
2021/12/10 12:54:17;;;;;;;12.93;7.17;;;;;;;0.40;100.00;94638.63;10615246;28;20196;-66
2021/12/10 12:59:18;;;;;;;10.70;6.87;;;;;;;0.44;100.00;94632.22;10613232;28;20427;-61
2021/12/10 13:04:23;;;;;;;11.80;6.90;;;;;;;0.71;100.00;94630.56;10613434;28;20333;-63
2021/12/10 13:09:39;;;;;;;11.90;6.33;;;;;;;0.61;100.00;94622.88;10595119;28;20212;-65
2021/12/10 13:15:01;;;;;;;8.37;5.47;;;;;;;0.67;100.00;94624.91;10612480;28;20229;-63
2021/12/10 13:20:10;;;;;;;10.93;5.97;;;;;;;0.53;100.00;94638.28;10613066;28;20169;-66
2021/12/10 13:25:15;;;;;;;10.60;6.00;;;;;;;0.70;100.00;94634.91;10612598;28;20162;-65
2021/12/10 13:30:24;;;;;;;7.93;5.30;;;;;;;0.65;100.00;94636.31;10612801;28;20608;-65
2021/12/10 13:35:28;;;;;;;8.50;5.33;;;;;;;0.60;100.00;94638.50;10612119;28;20168;-66
2021/12/10 13:40:31;;;;;;;7.80;5.00;;;;;;;0.49;100.00;94632.63;10610961;28;20318;-64
2021/12/10 13:45:34;;;;;;;5.90;3.93;;;;;;;0.42;100.00;94625.63;10613203;28;20160;-65
2021/12/10 13:50:39;;;;;;;6.50;4.00;;;;;;;0.49;100.00;94621.47;10613282;28;20268;-64
2021/12/10 13:55:41;;;;;;;5.83;3.83;;;;;;;0.50;100.00;94629.06;10614006;28;20162;-66
2021/12/10 14:00:48;;;;;;;5.73;3.70;;;;;;;0.44;100.00;94634.00;10613690;28;20276;-64
2021/12/10 14:05:49;;;;;;;50.83;21.70;;;;;;;0.37;100.00;94628.63;10613347;28;20190;-66
2021/12/10 14:10:56;;;;;;;48.83;21.97;;;;;;;0.34;100.00;94629.72;10612410;28;20205;-65
2021/12/10 14:16:05;;;;;;;22.07;14.10;;;;;;;0.39;100.00;94641.38;10608242;28;20228;-66
2021/12/10 14:21:09;;;;;;;16.60;11.17;;;;;;;0.17;100.00;94638.25;10610377;28;20363;-66
2021/12/10 14:26:17;;;;;;;9.53;5.77;;;;;;;0.17;100.00;94643.38;10609770;28;20199;-67
2021/12/10 14:31:21;;;;;;;8.87;4.87;;;;;;;0.16;100.00;94642.56;10610378;28;20200;-64
2021/12/10 14:36:28;;;;;;;11.20;7.60;;;;;;;-0.04;100.00;94646.19;10610668;28;20185;-65
2021/12/10 14:41:35;;;;;;;8.50;5.53;;;;;;;-0.37;100.00;94636.31;10608861;28;20217;-66
2021/12/10 14:46:44;;;;;;;8.73;5.63;;;;;;;-0.46;100.00;94642.28;10608910;28;20235;-66
2021/12/10 14:52:04;;;;;;;6.87;4.50;;;;;;;-0.86;100.00;94639.94;10610461;28;20205;-63
2021/12/10 14:57:05;;;;;;;6.90;4.90;;;;;;;-1.08;100.00;94629.81;10608323;28;20170;-66
2021/12/10 15:02:22;;;;;;;10.53;5.70;;;;;;;-1.35;100.00;94645.91;10609199;28;20338;-65
2021/12/10 15:07:27;;;;;;;28.13;13.87;;;;;;;-1.52;100.00;94652.50;10608873;28;20173;-63
2021/12/10 15:13:09;;;;;;;11.43;7.93;;;;;;;-1.76;100.00;94644.38;10607671;28;20291;-65
2021/12/10 15:18:36;;;;;;;16.33;8.60;;;;;;;-1.89;100.00;94650.56;10513474;28;20232;-66
2021/12/10 15:23:37;;;;;;;19.33;10.40;;;;;;;-2.10;100.00;94660.09;10607548;28;20227;-64
2021/12/10 15:28:40;;;;;;;54.47;20.80;;;;;;;-2.13;100.00;94660.34;10608742;28;20308;-67
2021/12/10 15:33:41;;;;;;;63.47;22.93;;;;;;;-2.33;100.00;94658.53;10606825;28;20216;-64
2021/12/10 15:38:44;;;;;;;29.80;12.83;;;;;;;-2.64;100.00;94657.69;10609572;28;20186;-66
2021/12/10 15:43:49;;;;;;;15.97;8.53;;;;;;;-2.77;100.00;94657.91;10608644;28;20181;-65
2021/12/10 15:48:52;;;;;;;14.67;8.83;;;;;;;-2.94;100.00;94655.88;10607961;28;20271;-65
2021/12/10 15:53:57;;;;;;;18.57;11.07;;;;;;;-2.83;100.00;94672.94;10606635;28;20174;-64
2021/12/10 15:58:59;;;;;;;18.30;9.40;;;;;;;-3.01;100.00;94670.94;10608064;28;20203;-65
2021/12/10 16:04:04;;;;;;;16.80;9.67;;;;;;;-3.34;100.00;94669.34;10606603;28;20170;-64
2021/12/10 16:09:12;;;;;;;21.67;11.47;;;;;;;-3.56;100.00;94673.59;10604936;28;20447;-65
2021/12/10 16:14:12;;;;;;;20.63;10.23;;;;;;;-3.63;100.00;94675.00;10605756;28;20289;-65
2021/12/10 16:19:16;;;;;;;16.77;10.27;;;;;;;-3.69;100.00;94689.13;10602631;28;20221;-64
2021/12/10 16:24:26;;;;;;;38.10;18.50;;;;;;;-4.04;100.00;94694.38;10602645;28;20181;-67
2021/12/10 16:29:37;;;;;;;35.83;18.67;;;;;;;-4.15;100.00;94698.59;10603686;28;20279;-67
2021/12/10 16:34:38;;;;;;;30.80;14.90;;;;;;;-4.12;100.00;94713.69;10602851;28;20518;-63
2021/12/10 16:39:43;;;;;;;25.10;12.17;;;;;;;-3.99;100.00;94713.56;10605689;28;20173;-64
2021/12/10 16:44:44;;;;;;;26.37;12.77;;;;;;;-4.04;100.00;94718.22;10605351;28;20166;-64
2021/12/10 16:49:45;;;;;;;28.53;14.63;;;;;;;-4.02;100.00;94723.22;10604668;28;20198;-63
2021/12/10 16:54:46;;;;;;;25.27;13.70;;;;;;;-4.26;100.00;94736.09;10604089;28;20193;-63
2021/12/10 16:59:49;;;;;;;33.60;19.43;;;;;;;-4.07;100.00;94725.28;10604585;28;20186;-64
2021/12/10 17:04:53;;;;;;;32.17;16.93;;;;;;;-3.80;100.00;94720.66;10597262;28;20395;-63
2021/12/10 17:09:59;;;;;;;33.90;17.63;;;;;;;-3.86;100.00;94725.41;10607219;28;20269;-64
2021/12/10 17:15:12;;;;;;;37.43;19.63;;;;;;;-3.83;100.00;94720.06;10606892;28;20224;-66
2021/12/10 17:20:43;;;;;;;43.57;20.60;;;;;;;-3.78;100.00;94718.78;10607677;28;20233;-64
2021/12/10 17:25:53;;;;;;;39.90;19.73;;;;;;;-3.48;100.00;94724.19;10612781;28;20178;-63
2021/12/10 17:30:57;;;;;;;81.63;50.17;;;;;;;-3.78;100.00;94733.31;10614782;28;20194;-62
2021/12/10 17:36:01;;;;;;;34.37;18.97;;;;;;;-3.78;100.00;94738.44;10614192;28;20170;-62
2021/12/10 17:41:13;;;;;;;38.80;19.97;;;;;;;-3.81;100.00;94747.16;10614718;28;20336;-63
2021/12/10 17:46:42;;;;;;;40.57;23.40;;;;;;;-3.87;100.00;94739.16;10614785;28;20289;-63
2021/12/10 17:51:46;;;;;;;116.07;56.93;;;;;;;-4.10;100.00;94753.66;10614289;28;20201;-62
2021/12/10 17:56:49;;;;;;;37.47;18.07;;;;;;;-3.99;100.00;94759.59;10613977;28;20188;-62
2021/12/10 18:01:55;;;;;;;39.23;18.40;;;;;;;-3.75;100.00;94761.22;10613869;28;20154;-64
2021/12/10 18:06:58;;;;;;;50.97;25.97;;;;;;;-3.67;100.00;94761.44;10613874;28;20170;-64
2021/12/10 18:12:06;;;;;;;79.23;35.40;;;;;;;-3.81;100.00;94771.94;10613381;28;20213;-64
2021/12/10 18:17:09;;;;;;;58.77;28.43;;;;;;;-3.82;100.00;94773.66;10612762;28;20718;-62
2021/12/10 18:22:13;;;;;;;65.37;30.73;;;;;;;-3.97;100.00;94792.72;10594826;28;20381;-64
2021/12/10 18:27:14;;;;;;;47.90;26.90;;;;;;;-3.82;100.00;94801.00;10611849;28;20251;-64
2021/12/10 18:32:21;;;;;;;37.13;19.83;;;;;;;-3.82;100.00;94806.09;10610944;28;20190;-63
2021/12/10 18:37:30;;;;;;;46.00;21.40;;;;;;;-3.83;100.00;94802.75;10611365;28;20166;-64
2021/12/10 18:42:35;;;;;;;34.90;19.43;;;;;;;-3.72;100.00;94801.94;10611613;28;20163;-65
2021/12/10 18:47:39;;;;;;;42.17;23.47;;;;;;;-3.86;100.00;94800.41;10610595;28;20166;-63
2021/12/10 18:52:39;;;;;;;41.80;21.70;;;;;;;-3.85;100.00;94809.69;10611352;28;20265;-62
2021/12/10 18:57:46;;;;;;;38.00;19.83;;;;;;;-3.97;100.00;94813.97;10610751;28;20172;-62
2021/12/10 19:02:49;;;;;;;41.90;22.10;;;;;;;-3.96;100.00;94815.63;10610580;28;20295;-65
2021/12/10 19:07:53;;;;;;;38.07;20.10;;;;;;;-4.15;100.00;94823.88;10610375;28;20170;-64
2021/12/10 19:12:57;;;;;;;43.00;20.83;;;;;;;-3.93;100.00;94829.13;10610361;28;20198;-62
2021/12/10 19:18:05;;;;;;;47.23;22.90;;;;;;;-3.95;100.00;94831.81;10609419;28;20221;-64
2021/12/10 19:23:11;;;;;;;35.07;18.93;;;;;;;-4.05;100.00;94834.22;10608771;28;20217;-63
2021/12/10 19:28:23;;;;;;;57.73;24.87;;;;;;;-4.07;100.00;94841.19;10607939;28;20170;-64
2021/12/10 19:33:32;;;;;;;43.70;21.73;;;;;;;-4.04;100.00;94851.19;10605056;28;20250;-62
2021/12/10 19:38:40;;;;;;;36.50;19.03;;;;;;;-4.13;100.00;94857.00;10607848;28;20181;-62
2021/12/10 19:43:44;;;;;;;56.43;24.30;;;;;;;-3.85;100.00;94863.41;10604161;28;20237;-63
2021/12/10 19:49:27;;;;;;;45.73;22.13;;;;;;;-4.13;100.00;94868.03;10605718;28;20189;-64
2021/12/10 19:54:29;;;;;;;74.97;31.43;;;;;;;-4.22;100.00;94870.44;10582813;28;20462;-64
2021/12/10 19:59:38;;;;;;;63.37;28.03;;;;;;;-4.25;100.00;94879.16;10606197;28;20262;-62
2021/12/10 20:04:45;;;;;;;54.77;24.87;;;;;;;-4.60;100.00;94879.13;10608628;28;20174;-63
2021/12/10 20:09:47;;;;;;;50.80;26.43;;;;;;;-4.73;100.00;94897.06;10608180;28;20442;-61
2021/12/10 20:14:52;;;;;;;43.27;21.67;;;;;;;-4.88;100.00;94906.63;10607619;28;20217;-64
2021/12/10 20:19:59;;;;;;;47.10;22.13;;;;;;;-4.70;100.00;94909.59;10606335;28;20166;-62
2021/12/10 20:25:07;;;;;;;40.10;20.57;;;;;;;-4.86;100.00;94913.25;10607782;28;20196;-64
2021/12/10 20:30:20;;;;;;;32.30;18.17;;;;;;;-5.06;100.00;94912.06;10606561;28;20216;-63
2021/12/10 20:35:30;;;;;;;34.70;18.37;;;;;;;-5.12;100.00;94929.56;10605224;28;20617;-63
2021/12/10 20:40:47;;;;;;;31.17;17.73;;;;;;;-5.01;100.00;94927.06;10602906;28;20166;-63
2021/12/10 20:46:11;;;;;;;36.97;17.17;;;;;;;-5.13;100.00;94928.75;10602542;28;20395;-64
2021/12/10 20:51:21;;;;;;;34.97;17.33;;;;;;;-5.34;100.00;94928.47;10603721;28;20270;-64
2021/12/10 20:56:25;;;;;;;74.80;37.73;;;;;;;-5.39;100.00;94927.94;10591741;28;20169;-65
2021/12/10 21:01:31;;;;;;;51.17;25.87;;;;;;;-5.66;100.00;94931.44;10615262;28;20162;-65
2021/12/10 21:06:37;;;;;;;42.07;21.53;;;;;;;-5.92;100.00;94940.81;10616062;28;20181;-65
2021/12/10 21:11:40;;;;;;;43.27;22.10;;;;;;;-5.89;100.00;94940.59;10614581;28;20208;-64
2021/12/10 21:16:46;;;;;;;40.13;21.60;;;;;;;-5.84;100.00;94943.66;10614893;28;20223;-64
2021/12/10 21:21:51;;;;;;;48.07;23.77;;;;;;;-5.85;100.00;94952.25;10614490;28;20200;-64
2021/12/10 21:26:56;;;;;;;42.53;22.53;;;;;;;-6.00;100.00;94948.97;10614946;28;20196;-62
2021/12/10 21:32:16;;;;;;;40.83;21.30;;;;;;;-6.07;100.00;94967.31;10615115;28;20209;-62
2021/12/10 21:42:34;;;;;;;37.80;19.87;;;;;;;-6.19;100.00;94979.09;10614392;28;20209;-65
2021/12/10 21:47:37;;;;;;;37.73;18.67;;;;;;;-6.26;100.00;94991.44;10614567;28;20190;-64
2021/12/10 21:52:42;;;;;;;38.67;19.13;;;;;;;-6.12;100.00;95005.84;10614805;28;20256;-63
2021/12/10 21:57:43;;;;;;;34.50;16.87;;;;;;;-6.19;100.00;95007.13;10613668;28;20197;-65
2021/12/10 22:02:49;;;;;;;25.87;15.80;;;;;;;-6.29;100.00;95017.91;10614525;28;20376;-63
2021/12/10 22:08:07;;;;;;;26.50;15.57;;;;;;;-6.38;100.00;95031.22;10612683;28;20196;-64
2021/12/10 22:13:36;;;;;;;30.57;15.20;;;;;;;-6.47;100.00;95047.06;10613820;28;20229;-63
2021/12/10 22:18:44;;;;;;;33.37;17.53;;;;;;;-6.64;100.00;95045.56;10602330;28;20223;-65
2021/12/10 22:23:49;;;;;;;36.50;16.70;;;;;;;-6.65;100.00;95049.81;10612571;28;20204;-63
2021/12/10 22:28:54;;;;;;;31.80;17.60;;;;;;;-6.43;100.00;95062.97;10612971;28;20273;-64
2021/12/10 22:34:02;;;;;;;30.90;17.13;;;;;;;-6.53;100.00;95067.84;10612377;28;20268;-62
2021/12/10 22:39:14;;;;;;;31.73;15.77;;;;;;;-6.55;100.00;95070.47;10612259;28;20168;-60
2021/12/10 22:44:25;;;;;;;33.40;17.47;;;;;;;-6.68;100.00;95070.38;10612602;28;20165;-62
2021/12/10 22:49:30;;;;;;;37.27;17.50;;;;;;;-6.79;100.00;95072.75;10612058;28;20267;-63
2021/12/10 22:54:37;;;;;;;32.57;16.93;;;;;;;-6.82;100.00;95078.84;10611830;28;20233;-63
2021/12/10 22:59:42;;;;;;;28.40;15.53;;;;;;;-6.94;100.00;95083.84;10611838;28;20408;-63
2021/12/10 23:04:48;;;;;;;30.03;15.73;;;;;;;-7.12;100.00;95093.38;10611720;28;20218;-62
2021/12/10 23:09:50;;;;;;;31.60;16.30;;;;;;;-7.17;100.00;95089.41;10611076;28;20210;-63
2021/12/10 23:15:03;;;;;;;31.60;16.27;;;;;;;-7.10;100.00;95089.03;10611048;28;20215;-62
2021/12/10 23:20:13;;;;;;;32.17;17.00;;;;;;;-7.25;100.00;95100.91;10610031;28;20205;-63
2021/12/10 23:25:19;;;;;;;30.53;16.20;;;;;;;-7.49;100.00;95110.75;10610248;28;20434;-62
2021/12/10 23:30:28;;;;;;;36.07;16.37;;;;;;;-7.24;100.00;95118.63;10610931;28;20203;-62